createdAt,value
2022-11-21T00:01:21.306Z,13.40
2022-11-21T00:03:48.986Z,9.37
2022-11-21T00:06:16.750Z,12.87
2022-11-21T00:08:44.523Z,13.63
2022-11-21T00:11:13.564Z,14.13
2022-11-21T00:13:41.725Z,15.60
2022-11-21T00:16:11.875Z,18.27
2022-11-21T00:18:39.573Z,12.93
2022-11-21T00:21:10.293Z,10.43
2022-11-21T00:23:37.573Z,14.80
2022-11-21T00:26:08.869Z,9.77
2022-11-21T00:28:36.960Z,10.60
2022-11-21T00:31:05.698Z,11.63
2022-11-21T00:33:34.833Z,11.07
2022-11-21T00:36:09.318Z,15.17
2022-11-21T00:38:37.284Z,15.17
2022-11-21T00:41:05.504Z,11.67
2022-11-21T00:43:33.261Z,11.80
2022-11-21T00:46:02.845Z,16.37
2022-11-21T00:48:31.789Z,9.80
2022-11-21T00:51:00.440Z,13.23
2022-11-21T00:53:28.234Z,11.60
2022-11-21T00:55:55.651Z,12.13
2022-11-21T00:58:22.947Z,19.47
2022-11-21T01:00:50.261Z,15.90
2022-11-21T01:03:17.879Z,14.37
2022-11-21T01:05:49.644Z,16.73
2022-11-21T01:08:16.967Z,13.73
2022-11-21T01:10:44.170Z,10.17
2022-11-21T01:13:11.349Z,9.27
2022-11-21T01:15:38.577Z,15.40
2022-11-21T01:18:05.829Z,12.17
2022-11-21T01:20:33.020Z,11.57
2022-11-21T01:23:00.259Z,15.30
2022-11-21T01:25:27.449Z,11.13
2022-11-21T01:27:54.667Z,11.93
2022-11-21T01:30:21.953Z,10.47
2022-11-21T01:32:50.039Z,17.13
2022-11-21T01:35:17.986Z,10.17
2022-11-21T01:37:49.457Z,10.03
2022-11-21T01:40:17.195Z,12.07
2022-11-21T01:43:12.221Z,17.40
2022-11-21T01:45:58.471Z,7.40
2022-11-21T01:48:28.119Z,7.37
2022-11-21T01:51:00.541Z,16.70
2022-11-21T01:53:27.969Z,22.20
2022-11-21T01:55:55.426Z,9.57
2022-11-21T01:58:23.700Z,9.23
2022-11-21T02:00:50.997Z,15.17
2022-11-21T02:03:22.269Z,9.23
2022-11-21T02:05:49.808Z,13.53
2022-11-21T02:08:20.854Z,20.93
2022-11-21T02:11:03.979Z,12.23
2022-11-21T02:13:31.278Z,11.57
2022-11-21T02:15:58.853Z,5.63
2022-11-21T02:18:26.093Z,10.50
2022-11-21T02:21:27.660Z,9.27
2022-11-21T02:24:03.392Z,8.33
2022-11-21T02:26:30.724Z,6.60
2022-11-21T02:28:58.547Z,8.80
2022-11-21T02:31:25.843Z,15.27
2022-11-21T02:33:53.155Z,12.33
2022-11-21T02:36:42.457Z,10.30
2022-11-21T02:39:21.881Z,9.87
2022-11-21T02:42:05.236Z,9.60
2022-11-21T02:45:11.699Z,12.33
2022-11-21T02:47:40.223Z,7.03
2022-11-21T02:50:15.390Z,7.93
2022-11-21T02:52:42.825Z,7.40
2022-11-21T02:55:11.747Z,13.30
2022-11-21T02:57:39.744Z,9.00
2022-11-21T03:00:08.263Z,7.90
2022-11-21T03:02:35.841Z,6.60
2022-11-21T03:05:06.940Z,8.27
2022-11-21T03:07:34.526Z,5.60
2022-11-21T03:10:02.106Z,11.13
2022-11-21T03:12:29.459Z,5.73
2022-11-21T03:14:56.651Z,6.67
2022-11-21T03:17:23.825Z,6.70
2022-11-21T03:19:51.014Z,8.60
2022-11-21T03:22:18.345Z,14.43
2022-11-21T03:24:45.535Z,6.73
2022-11-21T03:27:12.765Z,6.13
2022-11-21T03:29:40.008Z,11.77
2022-11-21T03:32:07.260Z,6.17
2022-11-21T03:34:34.649Z,8.07
2022-11-21T03:37:02.031Z,5.97
2022-11-21T03:39:32.358Z,7.23
2022-11-21T03:41:59.638Z,8.97
2022-11-21T03:44:27.219Z,10.63
2022-11-21T03:46:54.706Z,6.57
2022-11-21T03:49:21.943Z,8.20
2022-11-21T03:51:49.297Z,6.93
2022-11-21T03:54:16.576Z,5.90
2022-11-21T03:56:43.801Z,8.10
2022-11-21T03:59:11.016Z,10.70
2022-11-21T04:01:38.318Z,9.07
2022-11-21T04:04:06.322Z,7.23
2022-11-21T04:06:33.513Z,9.37
2022-11-21T04:09:00.804Z,11.43
2022-11-21T04:11:28.087Z,9.20
2022-11-21T04:13:55.298Z,5.57
2022-11-21T04:16:22.470Z,9.07
2022-11-21T04:18:49.711Z,7.17
2022-11-21T04:21:16.966Z,9.07
2022-11-21T04:23:44.154Z,9.97
2022-11-21T04:26:11.394Z,8.83
2022-11-21T04:28:38.687Z,7.07
2022-11-21T04:31:10.829Z,7.97
2022-11-21T04:33:41.528Z,6.57
2022-11-21T04:36:09.347Z,5.27
2022-11-21T04:38:37.196Z,10.37
2022-11-21T04:41:05.009Z,8.70
2022-11-21T04:43:32.327Z,5.53
2022-11-21T04:45:59.510Z,10.70
2022-11-21T04:48:26.730Z,13.17
2022-11-21T04:50:53.946Z,10.57
2022-11-21T04:53:21.171Z,6.90
2022-11-21T04:55:48.440Z,9.20
2022-11-21T04:58:15.640Z,7.53
2022-11-21T05:00:42.850Z,6.07
2022-11-21T05:03:10.769Z,6.07
2022-11-21T05:05:38.119Z,7.77
2022-11-21T05:08:05.474Z,7.13
2022-11-21T05:10:52.889Z,4.93
2022-11-21T05:13:22.760Z,3.73
2022-11-21T05:15:55.921Z,10.10
2022-11-21T05:18:23.412Z,8.30
2022-11-21T05:20:50.704Z,11.93
2022-11-21T05:23:18.003Z,9.37
2022-11-21T05:25:45.165Z,10.80
2022-11-21T05:28:12.404Z,11.83
2022-11-21T05:30:39.637Z,8.53
2022-11-21T05:33:07.027Z,10.73
2022-11-21T05:35:37.665Z,9.17
2022-11-21T05:38:07.476Z,9.67
2022-11-21T05:40:34.756Z,11.80
2022-11-21T05:43:20.485Z,8.47
2022-11-21T05:45:52.030Z,8.60
2022-11-21T05:48:19.352Z,12.87
2022-11-21T05:50:49.843Z,12.97
2022-11-21T05:53:17.633Z,12.47
2022-11-21T05:55:45.354Z,9.47
2022-11-21T05:58:13.048Z,12.17
2022-11-21T06:00:40.516Z,16.50
2022-11-21T06:03:30.199Z,14.57
2022-11-21T06:06:08.168Z,14.17
2022-11-21T06:08:46.917Z,17.93
2022-11-21T06:11:16.537Z,14.90
2022-11-21T06:13:44.356Z,13.57
2022-11-21T06:16:14.352Z,12.90
2022-11-21T06:18:43.919Z,13.63
2022-11-21T06:21:16.612Z,14.57
2022-11-21T06:23:45.599Z,11.77
2022-11-21T06:26:15.625Z,13.60
2022-11-21T06:28:43.998Z,12.30
2022-11-21T06:31:16.894Z,12.57
2022-11-21T06:33:44.858Z,11.03
2022-11-21T06:36:14.839Z,14.37
2022-11-21T06:38:42.502Z,19.33
2022-11-21T06:41:24.437Z,15.50
2022-11-21T06:43:51.818Z,14.90
2022-11-21T06:46:19.312Z,16.43
2022-11-21T06:48:46.580Z,10.70
2022-11-21T06:51:22.142Z,12.53
2022-11-21T06:53:57.122Z,14.97
2022-11-21T06:56:25.845Z,12.83
2022-11-21T06:58:53.460Z,11.10
2022-11-21T07:01:20.889Z,15.67
2022-11-21T07:03:54.447Z,10.40
2022-11-21T07:06:22.170Z,17.50
2022-11-21T07:09:17.716Z,7.73
2022-11-21T07:11:41.187Z,8.80
2022-11-21T07:14:09.370Z,10.23
2022-11-21T07:16:37.267Z,11.17
2022-11-21T07:19:04.513Z,10.40
2022-11-21T07:21:31.779Z,13.10
2022-11-21T07:23:59.530Z,6.93
2022-11-21T07:26:26.757Z,8.60
2022-11-21T07:28:54.121Z,7.93
2022-11-21T07:31:21.372Z,7.60
2022-11-21T07:33:48.644Z,8.47
2022-11-21T07:36:15.934Z,9.80
2022-11-21T07:38:43.283Z,12.60
2022-11-21T07:41:10.635Z,12.40
2022-11-21T07:43:38.152Z,11.50
2022-11-21T07:46:07.514Z,7.93
2022-11-21T07:48:34.995Z,10.57
2022-11-21T07:51:05.840Z,13.30
2022-11-21T07:53:33.139Z,10.27
2022-11-21T07:56:00.582Z,8.97
2022-11-21T07:58:27.868Z,17.90
2022-11-21T08:00:55.065Z,11.97
2022-11-21T08:03:23.121Z,8.00
2022-11-21T08:05:50.594Z,10.17
2022-11-21T08:08:17.965Z,10.80
2022-11-21T08:10:46.081Z,7.90
2022-11-21T08:13:14.178Z,13.83
2022-11-21T08:15:41.611Z,11.57
2022-11-21T08:18:12.717Z,12.37
2022-11-21T08:20:40.666Z,12.13
2022-11-21T08:23:08.389Z,9.10
2022-11-21T08:25:37.907Z,14.77
2022-11-21T08:28:06.037Z,11.93
2022-11-21T08:30:34.105Z,11.30
2022-11-21T08:33:01.805Z,11.83
2022-11-21T08:35:29.622Z,11.43
2022-11-21T08:37:57.857Z,10.10
2022-11-21T08:40:26.658Z,10.60
2022-11-21T08:43:08.276Z,10.10
2022-11-21T08:45:37.411Z,7.47
2022-11-21T08:48:08.736Z,12.50
2022-11-21T08:50:35.920Z,7.80
2022-11-21T08:53:03.531Z,8.87
2022-11-21T08:55:31.627Z,10.03
2022-11-21T08:57:59.435Z,12.27
2022-11-21T09:00:27.257Z,8.43
2022-11-21T09:02:54.705Z,11.80
2022-11-21T09:05:22.036Z,11.53
2022-11-21T09:07:56.309Z,9.87
2022-11-21T09:10:24.282Z,11.10
2022-11-21T09:12:51.575Z,15.07
2022-11-21T09:15:37.524Z,9.03
2022-11-21T09:18:05.293Z,11.87
2022-11-21T09:20:34.750Z,10.13
2022-11-21T09:23:11.115Z,9.87
2022-11-21T09:25:38.567Z,10.90
2022-11-21T09:28:08.655Z,11.83
2022-11-21T09:30:36.298Z,11.07
2022-11-21T09:33:06.001Z,13.37
2022-11-21T09:35:33.774Z,9.87
2022-11-21T09:38:01.066Z,9.80
2022-11-21T09:40:33.212Z,13.70
2022-11-21T09:43:22.292Z,16.83
2022-11-21T09:45:50.420Z,12.00
2022-11-21T09:48:32.800Z,8.67
2022-11-21T09:51:05.330Z,8.93
2022-11-21T09:53:36.421Z,8.97
2022-11-21T09:56:11.277Z,12.97
2022-11-21T09:58:43.704Z,14.43
2022-11-21T10:01:15.159Z,17.60
2022-11-21T10:03:47.925Z,10.63
2022-11-21T10:06:18.683Z,6.07
2022-11-21T10:09:04.536Z,6.93
2022-11-21T10:12:00.743Z,7.93
2022-11-21T10:14:50.484Z,10.30
2022-11-21T10:17:20.829Z,6.60
2022-11-21T10:19:59.842Z,8.05
2022-11-21T10:22:35.578Z,11.40
2022-11-21T10:25:15.256Z,7.70
2022-11-21T10:28:04.910Z,8.20
2022-11-21T10:30:33.410Z,7.72
2022-11-21T10:33:05.802Z,6.83
2022-11-21T10:35:43.266Z,4.68
2022-11-21T10:38:24.286Z,10.23
2022-11-21T10:41:01.094Z,7.18
2022-11-21T10:44:12.668Z,4.80
2022-11-21T10:46:39.952Z,6.88
2022-11-21T10:49:13.445Z,8.35
2022-11-21T10:52:00.207Z,6.97
2022-11-21T10:54:33.623Z,3.47
2022-11-21T10:57:20.547Z,6.90
2022-11-21T11:00:02.884Z,6.18
2022-11-21T11:02:30.089Z,5.97
2022-11-21T11:05:16.188Z,4.65
2022-11-21T11:07:58.448Z,8.77
2022-11-21T11:10:28.072Z,5.28
2022-11-21T11:13:44.492Z,6.53
2022-11-21T11:16:12.125Z,7.57
2022-11-21T11:19:03.180Z,7.40
2022-11-21T11:21:39.563Z,6.78
2022-11-21T11:24:09.782Z,3.08
2022-11-21T11:26:49.516Z,4.03
2022-11-21T11:29:22.190Z,1.85
2022-11-21T11:32:01.086Z,7.22
2022-11-21T11:34:47.162Z,3.03
2022-11-21T11:37:17.361Z,4.85
2022-11-21T11:39:44.675Z,6.35
2022-11-21T11:43:05.859Z,3.35
2022-11-21T11:46:29.260Z,2.95
2022-11-21T11:49:21.177Z,5.15
2022-11-21T11:51:57.000Z,3.28
2022-11-21T11:54:29.475Z,3.80
2022-11-21T11:56:58.668Z,3.60
2022-11-21T11:59:34.308Z,0.85
2022-11-21T12:02:29.357Z,1.55
2022-11-21T12:05:15.468Z,2.65
2022-11-21T12:08:39.726Z,3.08
2022-11-21T12:11:01.161Z,4.63
2022-11-21T12:13:29.818Z,4.50
2022-11-21T12:16:08.594Z,3.70
2022-11-21T12:18:53.484Z,2.28
2022-11-21T12:21:21.382Z,4.35
2022-11-21T12:23:49.821Z,5.22
2022-11-21T12:26:31.016Z,6.13
2022-11-21T12:29:15.689Z,3.53
2022-11-21T12:32:15.157Z,3.17
2022-11-21T12:34:48.284Z,4.10
2022-11-21T12:38:00.628Z,4.07
2022-11-21T12:40:58.990Z,1.85
2022-11-21T12:43:44.038Z,5.57
2022-11-21T12:46:24.225Z,4.45
2022-11-21T12:49:19.600Z,4.05
2022-11-21T12:52:30.311Z,3.53
2022-11-21T12:55:04.246Z,6.47
2022-11-21T12:58:00.501Z,4.50
2022-11-21T13:00:49.015Z,1.73
2022-11-21T13:03:39.697Z,2.17
2022-11-21T13:06:16.080Z,1.85
2022-11-21T13:08:46.198Z,6.70
2022-11-21T13:11:39.460Z,2.58
2022-11-21T13:14:12.991Z,3.67
2022-11-21T13:16:48.168Z,6.15
2022-11-21T13:19:37.019Z,3.25
2022-11-21T13:22:04.292Z,4.80
2022-11-21T13:24:56.336Z,2.58
2022-11-21T13:27:54.738Z,3.42
2022-11-21T13:30:24.723Z,4.47
2022-11-21T13:32:55.877Z,4.22
2022-11-21T13:35:23.116Z,2.78
2022-11-21T13:37:50.278Z,3.20
2022-11-21T13:41:04.670Z,1.30
2022-11-21T13:43:34.058Z,3.13
2022-11-21T13:46:02.363Z,1.88
2022-11-21T13:48:52.361Z,2.92
2022-11-21T13:51:51.580Z,3.58
2022-11-21T13:54:51.081Z,3.13
2022-11-21T13:57:36.458Z,4.65
2022-11-21T14:00:30.862Z,5.28
2022-11-21T14:03:33.364Z,5.80
2022-11-21T14:06:10.724Z,3.70
2022-11-21T14:08:37.909Z,5.25
2022-11-21T14:11:29.923Z,2.65
2022-11-21T14:13:57.315Z,5.85
2022-11-21T14:16:36.552Z,4.22
2022-11-21T14:19:05.356Z,2.33
2022-11-21T14:21:33.762Z,3.50
2022-11-21T14:24:13.261Z,5.65
2022-11-21T14:26:45.278Z,3.67
2022-11-21T14:29:29.191Z,6.53
2022-11-21T14:31:56.805Z,3.58
2022-11-21T14:34:29.307Z,2.70
2022-11-21T14:37:01.027Z,3.28
2022-11-21T14:39:43.726Z,4.68
2022-11-21T14:42:16.362Z,3.55
2022-11-21T14:44:43.888Z,4.55
2022-11-21T14:47:26.129Z,2.33
2022-11-21T14:49:57.022Z,8.18
2022-11-21T14:52:32.612Z,6.10
2022-11-21T14:55:29.294Z,5.18
2022-11-21T14:57:52.339Z,6.10
2022-11-21T15:03:23.813Z,7.10
2022-11-21T15:06:06.444Z,1.33
2022-11-21T15:09:52.788Z,3.72
2022-11-21T15:11:28.642Z,5.00
2022-11-21T15:14:17.828Z,6.45
2022-11-21T15:16:51.502Z,6.43
2022-11-21T15:19:28.068Z,3.15
2022-11-21T15:21:58.225Z,2.63
2022-11-21T15:24:42.401Z,3.25
2022-11-21T15:27:28.370Z,4.82
2022-11-21T15:30:10.143Z,5.10
2022-11-21T15:33:19.778Z,5.00
2022-11-21T15:35:57.405Z,2.17
2022-11-21T15:38:43.110Z,2.87
2022-11-21T15:41:10.298Z,3.53
2022-11-21T15:43:45.055Z,5.72
2022-11-21T15:46:28.621Z,4.37
2022-11-21T15:48:58.334Z,5.28
2022-11-21T15:54:27.639Z,6.20
2022-11-21T15:56:55.226Z,5.22
2022-11-21T15:59:22.729Z,8.23
2022-11-21T16:01:50.173Z,4.10
2022-11-21T16:04:22.387Z,2.53
2022-11-21T16:06:52.445Z,5.47
2022-11-21T16:09:20.321Z,2.17
2022-11-21T16:11:47.600Z,2.08
2022-11-21T16:14:16.987Z,3.53
2022-11-21T16:16:44.933Z,2.87
2022-11-21T16:19:13.670Z,5.43
2022-11-21T16:21:41.552Z,5.70
2022-11-21T16:24:08.883Z,2.70
2022-11-21T16:26:36.246Z,4.90
2022-11-21T16:29:05.606Z,5.67
2022-11-21T16:31:33.002Z,2.50
2022-11-21T16:34:00.787Z,3.43
2022-11-21T16:36:32.172Z,7.93
2022-11-21T16:39:07.661Z,3.83
2022-11-21T16:41:39.253Z,5.25
2022-11-21T16:44:14.010Z,6.15
2022-11-21T16:46:47.190Z,4.50
2022-11-21T16:49:14.867Z,9.63
2022-11-21T16:51:42.189Z,2.97
2022-11-21T16:54:09.844Z,9.93
2022-11-21T16:56:37.097Z,2.70
2022-11-21T16:59:04.458Z,4.77
2022-11-21T17:01:31.931Z,9.60
2022-11-21T17:04:00.139Z,5.90
2022-11-21T17:06:30.287Z,8.00
2022-11-21T17:09:02.250Z,8.50
2022-11-21T17:11:31.353Z,3.37
2022-11-21T17:14:06.411Z,5.47
2022-11-21T17:16:35.590Z,4.17
2022-11-21T17:19:04.286Z,2.77
2022-11-21T17:21:32.315Z,6.27
2022-11-21T17:23:59.758Z,4.97
2022-11-21T17:26:29.135Z,5.97
2022-11-21T17:28:58.777Z,5.00
2022-11-21T17:31:26.746Z,4.73
2022-11-21T17:33:56.694Z,5.73
2022-11-21T17:36:26.265Z,4.33
2022-11-21T17:38:54.613Z,5.17
2022-11-21T17:41:23.986Z,8.30
2022-11-21T17:43:55.855Z,9.90
2022-11-21T17:46:25.170Z,7.00
2022-11-21T17:48:57.326Z,5.70
2022-11-21T17:51:32.884Z,4.03
2022-11-21T17:54:01.183Z,4.63
2022-11-21T17:56:30.711Z,6.93
2022-11-21T17:58:58.155Z,4.57
2022-11-21T18:01:25.729Z,4.60
2022-11-21T18:04:00.495Z,5.70
2022-11-21T18:06:32.326Z,8.43
2022-11-21T18:08:59.738Z,11.53
2022-11-21T18:11:39.001Z,9.57
2022-11-21T18:14:09.509Z,5.40
2022-11-21T18:16:38.609Z,8.77
2022-11-21T18:19:06.289Z,4.83
2022-11-21T18:21:35.838Z,5.60
2022-11-21T18:24:03.263Z,7.70
2022-11-21T18:26:33.585Z,7.97
2022-11-21T18:29:34.572Z,6.50
2022-11-21T18:31:51.642Z,6.67
2022-11-21T18:34:18.957Z,7.37
2022-11-21T18:36:47.621Z,10.33
2022-11-21T18:39:15.778Z,6.90
2022-11-21T18:41:43.723Z,6.57
2022-11-21T18:44:12.682Z,6.53
2022-11-21T18:46:42.111Z,9.43
2022-11-21T18:49:09.749Z,10.50
2022-11-21T18:51:37.361Z,5.23
2022-11-21T18:54:07.967Z,7.60
2022-11-21T18:56:37.245Z,11.77
2022-11-21T18:59:06.021Z,7.20
2022-11-21T19:01:37.391Z,8.50
2022-11-21T19:04:05.060Z,4.97
2022-11-21T19:06:32.382Z,7.27
2022-11-21T19:08:59.677Z,9.63
2022-11-21T19:11:29.539Z,10.57
2022-11-21T19:13:58.025Z,9.37
2022-11-21T19:16:27.011Z,6.93
2022-11-21T19:19:26.281Z,7.30
2022-11-21T19:21:42.507Z,4.07
2022-11-21T19:24:14.506Z,6.07
2022-11-21T19:26:42.923Z,10.80
2022-11-21T19:29:10.747Z,8.10
2022-11-21T19:31:44.573Z,4.93
2022-11-21T19:34:13.493Z,6.23
2022-11-21T19:36:40.905Z,6.80
2022-11-21T19:39:08.900Z,5.30
2022-11-21T19:41:36.746Z,10.13
2022-11-21T19:44:04.209Z,8.20
2022-11-21T19:46:34.471Z,5.50
2022-11-21T19:49:02.260Z,7.87
2022-11-21T19:51:31.969Z,5.57
2022-11-21T19:54:01.426Z,9.23
2022-11-21T19:56:28.922Z,6.77
2022-11-21T19:58:56.887Z,5.27
2022-11-21T20:01:26.792Z,7.17
2022-11-21T20:03:56.497Z,9.03
2022-11-21T20:06:26.121Z,6.43
2022-11-21T20:09:07.546Z,6.87
2022-11-21T20:11:35.606Z,7.53
2022-11-21T20:14:02.908Z,7.60
2022-11-21T20:16:33.040Z,5.20
2022-11-21T20:19:02.919Z,8.87
2022-11-21T20:21:30.511Z,9.37
2022-11-21T20:23:57.968Z,5.17
2022-11-21T20:26:26.575Z,5.33
2022-11-21T20:28:54.314Z,5.57
2022-11-21T20:31:27.717Z,6.37
2022-11-21T20:36:54.914Z,6.47
2022-11-21T20:39:22.137Z,8.60
2022-11-21T20:41:49.428Z,5.83
2022-11-21T20:45:30.005Z,7.27
2022-11-21T20:47:07.223Z,8.77
2022-11-21T20:49:34.685Z,7.03
2022-11-21T20:54:49.176Z,7.43
2022-11-21T20:57:16.574Z,6.27
2022-11-21T20:59:43.917Z,4.87
2022-11-21T21:02:14.745Z,8.07
2022-11-21T21:04:42.505Z,9.27
2022-11-21T21:07:10.255Z,10.07
2022-11-21T21:09:37.690Z,5.87
2022-11-21T21:12:05.657Z,8.37
2022-11-21T21:14:32.913Z,8.60
2022-11-21T21:17:00.250Z,11.20
2022-11-21T21:19:28.011Z,5.63
2022-11-21T21:21:55.481Z,8.63
2022-11-21T21:24:22.829Z,10.17
2022-11-21T21:26:50.171Z,8.30
2022-11-21T21:29:20.285Z,7.90
2022-11-21T21:31:51.576Z,8.97
2022-11-21T21:34:20.977Z,6.93
2022-11-21T21:36:49.083Z,7.10
2022-11-21T21:39:16.504Z,10.33
2022-11-21T21:41:46.048Z,3.83
2022-11-21T21:44:14.038Z,7.97
2022-11-21T21:46:41.512Z,5.10
2022-11-21T21:49:08.854Z,8.37
2022-11-21T21:51:37.381Z,8.30
2022-11-21T21:54:06.348Z,6.17
2022-11-21T21:56:34.110Z,5.77
2022-11-21T21:59:01.382Z,7.63
2022-11-21T22:01:30.835Z,5.37
2022-11-21T22:04:00.657Z,5.80
2022-11-21T22:06:28.997Z,7.30
2022-11-21T22:08:56.394Z,7.10
2022-11-21T22:11:28.674Z,3.40
2022-11-21T22:13:58.056Z,11.03
2022-11-21T22:16:25.804Z,5.23
2022-11-21T22:18:53.317Z,5.70
2022-11-21T22:21:24.463Z,3.43
2022-11-21T22:26:39.545Z,4.97
2022-11-21T22:29:07.123Z,8.30
2022-11-21T22:31:34.668Z,3.33
2022-11-21T22:34:02.064Z,4.80
2022-11-21T22:36:29.293Z,5.20
2022-11-21T22:38:56.819Z,4.63
2022-11-21T22:41:26.481Z,10.27
2022-11-21T22:43:55.897Z,3.33
2022-11-21T22:46:24.899Z,4.33
2022-11-21T22:48:52.118Z,6.60
2022-11-21T22:51:21.972Z,4.30
2022-11-21T22:53:50.133Z,5.53
2022-11-21T22:56:19.748Z,8.43
2022-11-21T22:58:47.833Z,4.07
2022-11-21T23:01:20.837Z,3.93
2022-11-21T23:03:49.348Z,5.43
2022-11-21T23:06:18.904Z,3.77
2022-11-21T23:08:46.297Z,6.63
2022-11-21T23:11:16.230Z,5.50
2022-11-21T23:13:45.109Z,4.53
2022-11-21T23:16:13.267Z,5.77
2022-11-21T23:18:41.008Z,7.00
2022-11-21T23:21:09.690Z,4.93
2022-11-21T23:23:37.088Z,3.93
2022-11-21T23:26:05.083Z,4.80
2022-11-21T23:28:32.978Z,5.67
2022-11-21T23:31:00.212Z,7.10
2022-11-21T23:33:27.571Z,5.07
2022-11-21T23:35:55.061Z,3.23
2022-11-21T23:38:22.391Z,3.27
2022-11-21T23:40:50.168Z,5.03
2022-11-21T23:43:18.712Z,7.63
2022-11-21T23:45:53.665Z,4.60
2022-11-21T23:48:21.722Z,4.27
2022-11-21T23:50:51.243Z,4.27
2022-11-21T23:53:20.027Z,5.80
2022-11-21T23:55:48.291Z,4.53
2022-11-21T23:58:24.356Z,6.43
